• Join FlightAware (Why Join?)
  • Login
  • US Flag 
04:56AM EDT


 

Airport Tracker/Info


-or-


 

Live Flight TrackerFlight Track Log ✈ EJA935 ✈ 27-Aug-2013 ✈ KRIL - KJAC

Flight Track Log - Related Links

Times and Time Zones

All times are in EDT time to prevent confusion due to time zone crossing. See the EJA935 flight status page for this flight to view local times or setup timezone preferences in your user account.

Time Position Orientation Groundspeed Altitude Reporting Facility
EDT Latitude Longitude Course Direction KTS MPH feet Rate Location/Type
04:04PM 39.5267 -107.7267 333° Northwest 45 52 5,500  Level Denver Center
04:05PM 39.5453 -107.7861 292° West 162 186 7,900 3,000 Climbing Denver Center
04:06PM 39.6197 -107.8083 347° North 241 277 11,800 3,540 Climbing Denver Center
04:07PM 39.7128 -107.8322 349° North 307 353 15,300 2,100 Climbing Denver Center
04:08PM 40.1652 -107.9905 330° Northwest  Level FlightAware Approximate
04:08PM 39.8081 -107.8558 349° North 363 418 16,200  Level Denver Center
04:09PM 40.2664 -108.0609 333° Northwest  Level FlightAware Approximate
04:09PM 39.9258 -107.8864 349° North 385 443 18,200  Level Denver Center
04:10PM 40.0289 -107.9139 348° North 392 451 19,600 1,500 Climbing Denver Center
04:11PM 40.1447 -107.9778 337° Northwest 403 464 21,400 1,500 Climbing Denver Center
04:12PM 40.2417 -108.0458 332° Northwest 413 475 22,700 1,500 Climbing Denver Center
04:13PM 40.3586 -108.1283 332° Northwest 425 489 24,600 1,680 Climbing Denver Center
04:14PM 40.4597 -108.2006 331° Northwest 430 495 26,200 1,380 Climbing Denver Center
04:15PM 40.5783 -108.2850 332° Northwest 434 499 27,500 840 Climbing Denver Center
04:16PM 40.6856 -108.3594 332° Northwest 447 514 28,000 240 Climbing Denver Center
04:17PM 40.8161 -108.4539 331° Northwest 473 544 28,000  Level Denver Center
04:18PM 40.8931 -108.5097 331° Northwest 487 560 28,000  Level Salt Lake Center
04:19PM 41.0311 -108.6089 332° Northwest 502 578 28,000  Level Salt Lake Center
04:20PM 41.1453 -108.6906 332° Northwest 494 568 28,000  Level Salt Lake Center
04:21PM 41.2575 -108.7711 332° Northwest 485 558 28,000  Level Salt Lake Center
04:22PM 41.3911 -108.8497 336° Northwest 475 547 28,000  Level Salt Lake Center
04:23PM 41.5044 -108.9164 336° Northwest 474 545 28,000  Level Salt Lake Center
04:24PM 41.6367 -108.9936 336° Northwest 472 543 28,000  Level Salt Lake Center
04:25PM 41.7486 -109.0617 336° Northwest 467 537 28,000  Level Salt Lake Center
04:26PM 41.8831 -109.1408 336° Northwest 472 543 28,000  Level Salt Lake Center
04:27PM 41.9983 -109.2086 336° Northwest 474 545 28,000  Level Salt Lake Center
04:28PM 42.1306 -109.2894 336° Northwest 469 540 28,000  Level Salt Lake Center
04:29PM 42.2439 -109.3578 336° Northwest 468 539 28,000  Level Salt Lake Center
04:30PM 42.3769 -109.4386 336° Northwest 469 540 28,000  Level Salt Lake Center
04:31PM 42.4908 -109.5081 336° Northwest 470 541 28,000  Level Salt Lake Center
04:32PM 42.6183 -109.6022 331° Northwest 467 537 28,000 -60 Level Salt Lake Center
04:33PM 42.7203 -109.6950 326° Northwest 461 531 27,900 -840 Descending Salt Lake Center
04:34PM 42.8264 -109.7914 326° Northwest 477 549 26,400 -1,560 Descending Salt Lake Center
04:35PM 42.9503 -109.9036 326° Northwest 502 578 24,700 -1,740 Descending Salt Lake Center
04:36PM 43.0819 -110.0244 326° Northwest 508 585 22,900 -1,860 Descending Salt Lake Center
04:37PM 43.1919 -110.1244 326° Northwest 497 572 20,900 -2,340 Descending Salt Lake Center
04:38PM 43.2906 -110.2119 327° Northwest 434 499 18,200 -2,460 Descending Salt Lake Center
04:39PM 43.3819 -110.2964 326° Northwest 399 459 15,900 -2,040 Descending Salt Lake Center
04:40PM 43.4664 -110.3769 325° Northwest 373 429 14,000 -960 Descending Salt Lake Center
04:41PM 43.5522 -110.4478 329° Northwest 302 348 14,000  Level Salt Lake Center
04:42PM 43.6153 -110.4711 345° North 241 277 14,000 -300 Level Salt Lake Center
04:43PM 43.6736 -110.4958 343° North 224 258 13,500 -960 Descending Salt Lake Center
04:45PM 43.7219 -110.5419 325° Northwest 225 259 12,100 -1,500 Descending Salt Lake Center
04:46PM 43.7392 -110.6186 287° West 217 250 10,500 -1,560 Descending Salt Lake Center
04:47PM 43.7131 -110.6878 242° Southwest 212 244 9,000 -1,440 Descending Salt Lake Center
04:48PM 43.6611 -110.7106 198° South 178 205 7,600 -1,140 Descending Salt Lake Center
04:49PM 43.6222 -110.7303 200° South 160 184 6,700 -900 Descending Salt Lake Center